Time;durP1;ratioP1;P1;durP2;ratioP2;P2;SDS_P1;SDS_P2;PMS_P1;PMS_P2;Temp;Humidity;BMP_temperature;BMP_pressure;BME280_temperature;BME280_humidity;BME280_pressure;Samples;Min_cycle;Max_cycle;Signal;HPM_P1;HPM_P2
2021/05/15 00:00:00;;;;;;;6.63;0.85;;;11.50;1.00;;;;;;5064081;28;20082;-66
2021/05/15 00:02:47;;;;;;;1.10;0.70;;;11.50;1.00;;;;;;5097179;28;20055;-64
2021/05/15 00:05:34;;;;;;;1.52;0.57;;;11.40;1.00;;;;;;5097556;28;20074;-65
2021/05/15 00:08:21;;;;;;;0.90;0.60;;;11.40;1.00;;;;;;5096224;28;20075;-66
2021/05/15 00:11:08;;;;;;;1.08;0.70;;;11.40;1.00;;;;;;5094570;28;20066;-66
2021/05/15 00:13:56;;;;;;;1.00;0.70;;;11.40;1.00;;;;;;5098166;28;20048;-65
2021/05/15 00:16:43;;;;;;;1.85;0.63;;;11.30;1.00;;;;;;5102028;28;20048;-65
2021/05/15 00:19:29;;;;;;;1.77;0.82;;;11.20;1.00;;;;;;5096831;28;20133;-65
2021/05/15 00:22:16;;;;;;;1.75;0.70;;;11.20;1.00;;;;;;5081469;28;20392;-65
2021/05/15 00:25:04;;;;;;;1.85;0.60;;;11.10;1.00;;;;;;5095881;28;20504;-65
2021/05/15 00:27:51;;;;;;;2.17;0.80;;;11.10;1.00;;;;;;5101479;28;20051;-65
2021/05/15 00:30:39;;;;;;;1.42;0.60;;;11.00;1.00;;;;;;5080445;28;20063;-65
2021/05/15 00:33:25;;;;;;;1.65;0.95;;;11.00;1.00;;;;;;5099276;28;20051;-64
2021/05/15 00:36:12;;;;;;;1.00;0.90;;;10.90;1.00;;;;;;5098399;28;20120;-64
2021/05/15 00:38:59;;;;;;;1.45;0.68;;;10.80;1.00;;;;;;5097156;28;20051;-64
2021/05/15 00:41:46;;;;;;;1.02;0.65;;;10.80;1.00;;;;;;5096030;28;20051;-65
2021/05/15 00:44:43;;;;;;;1.27;0.73;;;10.70;1.00;;;;;;5101053;28;20059;-64
2021/05/15 00:47:31;;;;;;;1.33;0.80;;;10.70;1.00;;;;;;5098630;28;20704;-64
2021/05/15 00:50:18;;;;;;;1.35;0.60;;;10.60;1.00;;;;;;5098177;28;20530;-66
2021/05/15 00:53:05;;;;;;;1.45;0.85;;;10.60;1.30;;;;;;5003871;28;20051;-65
2021/05/15 00:55:52;;;;;;;1.10;0.80;;;10.60;1.50;;;;;;5085043;28;20523;-65
2021/05/15 00:58:40;;;;;;;1.83;0.80;;;10.50;1.70;;;;;;5077534;28;20265;-65
2021/05/15 01:01:27;;;;;;;1.15;0.82;;;10.50;2.10;;;;;;5076870;28;20548;-66
2021/05/15 01:04:15;;;;;;;1.90;0.90;;;10.40;2.70;;;;;;5073277;28;20151;-65
2021/05/15 01:07:04;;;;;;;1.10;0.77;;;10.30;3.00;;;;;;5079327;28;20431;-66
2021/05/15 01:09:51;;;;;;;1.85;0.95;;;10.30;3.60;;;;;;5075646;28;20075;-65
2021/05/15 01:12:44;;;;;;;1.55;0.80;;;10.30;2.90;;;;;;5075747;28;20408;-65
2021/05/15 01:15:31;;;;;;;0.93;0.60;;;10.20;3.80;;;;;;5073649;28;20041;-66
2021/05/15 01:18:18;;;;;;;1.00;0.70;;;10.20;3.40;;;;;;5080168;28;20071;-65
2021/05/15 01:21:06;;;;;;;1.38;0.63;;;10.20;3.00;;;;;;5074427;28;20051;-65
2021/05/15 01:23:53;;;;;;;1.13;0.70;;;10.20;3.20;;;;;;5078812;28;20044;-65
2021/05/15 01:26:40;;;;;;;1.67;0.70;;;10.10;3.20;;;;;;5077159;28;20056;-66
2021/05/15 01:29:28;;;;;;;2.35;0.90;;;10.10;2.90;;;;;;5074630;28;20048;-66
2021/05/15 01:32:15;;;;;;;1.48;0.65;;;10.10;3.50;;;;;;5077636;28;20044;-65
2021/05/15 01:35:02;;;;;;;1.70;0.73;;;10.00;3.10;;;;;;5078216;28;20048;-65
2021/05/15 01:37:55;;;;;;;3.00;0.98;;;10.00;3.60;;;;;;5072336;28;20033;-65
2021/05/15 01:40:42;;;;;;;2.05;0.90;;;10.00;4.10;;;;;;5073662;28;20479;-65
2021/05/15 01:43:28;;;;;;;2.08;1.00;;;10.00;3.70;;;;;;5074638;28;20045;-65
2021/05/15 01:46:15;;;;;;;2.17;0.98;;;10.00;3.50;;;;;;5078734;28;20092;-66
2021/05/15 01:49:03;;;;;;;1.42;0.63;;;10.00;2.70;;;;;;5075496;28;20040;-65
2021/05/15 01:51:50;;;;;;;1.23;0.63;;;10.00;3.60;;;;;;5075433;28;20265;-65
2021/05/15 01:54:38;;;;;;;1.77;0.77;;;10.00;3.20;;;;;;5076019;28;20515;-64
2021/05/15 01:57:24;;;;;;;0.70;0.60;;;9.90;3.80;;;;;;5074872;28;20052;-64
2021/05/15 02:00:12;;;;;;;2.15;0.77;;;9.90;4.10;;;;;;5077315;28;21138;-65
2021/05/15 02:02:59;;;;;;;2.15;0.70;;;9.90;4.10;;;;;;5072158;28;20052;-65
2021/05/15 02:05:47;;;;;;;0.95;0.70;;;9.90;4.00;;;;;;5064320;28;20048;-66
2021/05/15 02:08:35;;;;;;;1.20;0.60;;;9.90;4.20;;;;;;5072534;28;20123;-65
2021/05/15 02:11:23;;;;;;;0.93;0.70;;;9.90;4.20;;;;;;5075462;28;20052;-66
2021/05/15 02:14:09;;;;;;;1.80;0.77;;;9.90;4.00;;;;;;5076385;28;20051;-66
2021/05/15 02:16:56;;;;;;;2.03;0.60;;;9.90;3.80;;;;;;5077808;28;20048;-64
2021/05/15 02:19:43;;;;;;;1.60;0.63;;;9.90;3.90;;;;;;5079896;28;20044;-65
2021/05/15 02:22:30;;;;;;;2.78;1.00;;;9.90;4.00;;;;;;5075001;28;20075;-65
2021/05/15 02:25:21;;;;;;;3.67;0.80;;;10.00;2.60;;;;;;5075745;28;20129;-65
2021/05/15 02:28:09;;;;;;;1.33;0.52;;;10.10;2.50;;;;;;5079901;28;20052;-64
2021/05/15 02:30:56;;;;;;;1.08;0.60;;;10.10;2.20;;;;;;5066738;28;20051;-65
2021/05/15 02:33:43;;;;;;;3.35;0.70;;;10.10;2.30;;;;;;5073927;28;20071;-65
2021/05/15 02:36:29;;;;;;;1.63;0.77;;;10.00;3.10;;;;;;5075026;28;20057;-65
2021/05/15 02:39:16;;;;;;;1.48;0.73;;;10.10;2.40;;;;;;5072047;28;21274;-65
2021/05/15 02:42:04;;;;;;;1.40;0.95;;;10.00;2.70;;;;;;5072968;28;20499;-65
2021/05/15 02:44:52;;;;;;;0.98;0.70;;;10.00;2.70;;;;;;5077037;28;20051;-66
2021/05/15 02:47:41;;;;;;;3.13;0.80;;;9.90;4.10;;;;;;5076477;28;20521;-66
2021/05/15 02:50:28;;;;;;;1.63;0.93;;;9.80;4.50;;;;;;5074865;28;20055;-65
2021/05/15 02:53:16;;;;;;;1.58;0.80;;;9.80;4.70;;;;;;5074351;28;20056;-65
2021/05/15 02:56:03;;;;;;;1.10;0.70;;;9.70;4.90;;;;;;5075784;28;20169;-65
2021/05/15 02:58:49;;;;;;;1.95;0.80;;;9.70;4.60;;;;;;5073321;28;20080;-65
2021/05/15 03:01:37;;;;;;;1.48;0.95;;;9.80;4.70;;;;;;5072297;28;20105;-65
2021/05/15 03:04:24;;;;;;;1.58;0.63;;;9.70;4.60;;;;;;5078416;28;20059;-65
2021/05/15 03:07:11;;;;;;;3.40;0.90;;;9.70;4.70;;;;;;5081055;28;20131;-65
2021/05/15 03:09:57;;;;;;;1.40;0.80;;;9.70;4.70;;;;;;5075370;28;20056;-65
2021/05/15 03:12:44;;;;;;;1.20;0.73;;;9.60;5.10;;;;;;5071981;28;20044;-66
2021/05/15 03:15:31;;;;;;;2.10;0.73;;;9.60;5.40;;;;;;5075449;28;20604;-66
2021/05/15 03:18:19;;;;;;;1.88;1.20;;;9.60;5.60;;;;;;5075174;28;20071;-66
2021/05/15 03:21:10;;;;;;;2.00;0.95;;;9.60;5.90;;;;;;5069731;28;20161;-66
2021/05/15 03:23:57;;;;;;;2.50;0.80;;;9.50;6.40;;;;;;5074734;28;20068;-66
2021/05/15 03:26:43;;;;;;;1.42;0.90;;;9.40;7.00;;;;;;5072501;28;20041;-65
2021/05/15 03:29:32;;;;;;;1.30;0.82;;;9.40;7.60;;;;;;5075932;28;20527;-65
2021/05/15 03:32:20;;;;;;;2.58;0.88;;;9.40;7.90;;;;;;5070013;28;20489;-66
2021/05/15 03:35:09;;;;;;;1.38;0.88;;;9.40;8.10;;;;;;5083190;28;20048;-65
2021/05/15 03:37:56;;;;;;;1.45;1.00;;;9.40;8.20;;;;;;5076427;28;20053;-65
2021/05/15 03:40:46;;;;;;;1.10;0.90;;;9.40;8.90;;;;;;5079881;28;20128;-65
2021/05/15 03:43:32;;;;;;;1.40;0.90;;;9.40;8.50;;;;;;5080962;28;20060;-66
2021/05/15 03:46:19;;;;;;;2.72;0.88;;;9.40;8.80;;;;;;5083750;28;20063;-66
2021/05/15 03:49:06;;;;;;;2.35;0.80;;;9.40;8.80;;;;;;5079859;28;20048;-65
2021/05/15 03:51:54;;;;;;;1.00;0.80;;;9.40;8.70;;;;;;5080998;28;20093;-65
2021/05/15 03:54:41;;;;;;;1.63;0.75;;;9.50;8.80;;;;;;5077243;28;20048;-65
2021/05/15 03:57:28;;;;;;;1.02;0.93;;;9.50;9.00;;;;;;5083535;28;20504;-65
2021/05/15 04:00:15;;;;;;;1.45;0.90;;;9.60;8.70;;;;;;5086185;28;20048;-65
2021/05/15 04:03:02;;;;;;;2.53;0.73;;;9.60;8.80;;;;;;5085669;28;20048;-65
2021/05/15 04:05:49;;;;;;;4.18;0.80;;;9.80;8.40;;;;;;5086070;28;20123;-65
2021/05/15 04:08:37;;;;;;;1.58;1.00;;;10.70;4.60;;;;;;5078764;28;20048;-65
2021/05/15 04:11:32;;;;;;;2.47;0.73;;;12.00;1.00;;;;;;5080222;28;20051;-66
2021/05/15 04:14:28;;;;;;;0.75;0.60;;;12.80;1.00;;;;;;5087044;28;20051;-66
2021/05/15 04:17:21;;;;;;;1.13;0.80;;;13.70;1.00;;;;;;5078827;28;20047;-65
2021/05/15 04:20:09;;;;;;;0.95;0.57;;;14.80;1.00;;;;;;5079959;28;20048;-65
2021/05/15 04:22:56;;;;;;;2.92;0.93;;;14.60;1.00;;;;;;5084501;28;20048;-66
2021/05/15 04:25:43;;;;;;;2.88;0.85;;;14.70;1.00;;;;;;5085678;28;20144;-65
2021/05/15 04:28:31;;;;;;;3.47;0.73;;;15.40;1.00;;;;;;5083768;28;20051;-65
2021/05/15 04:31:18;;;;;;;0.80;0.70;;;15.00;1.00;;;;;;5078290;28;20047;-65
2021/05/15 04:34:05;;;;;;;1.83;0.70;;;14.60;1.00;;;;;;5085346;28;20098;-65
2021/05/15 04:36:52;;;;;;;2.17;0.70;;;12.70;1.00;;;;;;5082358;28;20496;-66
2021/05/15 04:39:39;;;;;;;1.83;1.00;;;11.90;1.00;;;;;;5085885;28;20129;-66
2021/05/15 04:42:26;;;;;;;0.85;0.60;;;11.80;1.00;;;;;;5082862;28;20442;-65
2021/05/15 04:45:14;;;;;;;1.67;0.90;;;11.90;1.00;;;;;;5081581;28;20181;-65
2021/05/15 04:48:01;;;;;;;1.20;0.70;;;12.10;1.00;;;;;;5081048;28;20051;-65
2021/05/15 04:50:48;;;;;;;1.20;0.80;;;11.90;1.00;;;;;;5083554;28;20043;-66
2021/05/15 04:53:35;;;;;;;2.30;0.85;;;12.00;1.00;;;;;;5084360;28;20052;-65
2021/05/15 04:56:22;;;;;;;2.28;0.75;;;11.80;1.00;;;;;;5080822;28;20040;-65
2021/05/15 04:59:09;;;;;;;1.67;0.68;;;11.80;1.00;;;;;;5081037;28;20181;-65
2021/05/15 05:01:56;;;;;;;1.52;0.60;;;13.00;1.00;;;;;;5079445;28;20044;-65
2021/05/15 05:04:43;;;;;;;1.55;0.70;;;12.30;1.00;;;;;;5082756;28;20039;-65
2021/05/15 05:07:30;;;;;;;2.85;0.82;;;12.30;1.00;;;;;;5083275;28;20596;-66
2021/05/15 05:10:18;;;;;;;1.33;0.73;;;12.20;1.00;;;;;;5079844;28;20052;-65
2021/05/15 05:13:05;;;;;;;1.27;0.77;;;11.90;1.00;;;;;;5080965;28;20040;-66
2021/05/15 05:15:52;;;;;;;0.95;0.52;;;11.60;1.00;;;;;;5087221;28;20044;-66
2021/05/15 05:18:39;;;;;;;1.98;0.60;;;11.40;1.00;;;;;;5081102;28;20036;-66
2021/05/15 05:21:27;;;;;;;3.28;0.70;;;11.50;1.00;;;;;;5079177;28;20040;-65
2021/05/15 05:24:14;;;;;;;0.95;0.52;;;11.50;1.00;;;;;;5078563;28;20044;-66
2021/05/15 05:27:01;;;;;;;1.35;0.60;;;11.80;1.00;;;;;;5078851;28;20412;-66
2021/05/15 05:29:48;;;;;;;0.95;0.60;;;11.80;1.00;;;;;;5085341;28;20044;-65
2021/05/15 05:32:36;;;;;;;1.40;0.90;;;11.70;1.00;;;;;;5078760;28;20044;-65
2021/05/15 05:35:23;;;;;;;1.10;0.63;;;11.80;1.00;;;;;;5076565;28;20082;-65
2021/05/15 05:38:10;;;;;;;0.90;0.60;;;12.00;1.00;;;;;;5082194;28;20141;-65
2021/05/15 05:40:57;;;;;;;2.08;0.73;;;11.90;1.00;;;;;;5082065;28;20385;-65
2021/05/15 05:43:44;;;;;;;1.27;0.60;;;12.00;1.00;;;;;;5082084;28;20044;-66
2021/05/15 05:46:31;;;;;;;3.25;0.80;;;12.70;1.00;;;;;;5083009;28;20048;-64
2021/05/15 05:49:19;;;;;;;0.80;0.57;;;13.70;1.00;;;;;;5078148;28;20117;-65
2021/05/15 05:52:05;;;;;;;2.60;0.65;;;13.30;1.00;;;;;;5078305;28;20467;-65
2021/05/15 05:54:53;;;;;;;0.63;0.50;;;13.00;1.00;;;;;;5081255;28;20425;-65
2021/05/15 05:57:39;;;;;;;1.08;0.70;;;13.00;1.00;;;;;;5079718;28;20052;-65
2021/05/15 06:00:26;;;;;;;0.73;0.60;;;13.10;1.00;;;;;;5082754;28;20508;-66
2021/05/15 06:03:13;;;;;;;1.25;0.60;;;12.80;1.00;;;;;;5083568;28;20048;-66
2021/05/15 06:06:00;;;;;;;1.25;0.50;;;13.30;1.00;;;;;;5081830;28;20052;-66
2021/05/15 06:08:47;;;;;;;1.05;0.60;;;13.60;1.00;;;;;;5083778;28;20400;-66
2021/05/15 06:11:34;;;;;;;1.02;0.70;;;13.80;1.00;;;;;;5083011;28;20044;-65
2021/05/15 06:14:21;;;;;;;2.22;0.82;;;15.10;1.00;;;;;;5075270;28;20153;-65
2021/05/15 06:17:08;;;;;;;1.77;0.70;;;15.50;1.00;;;;;;5079736;28;20047;-65
2021/05/15 06:19:55;;;;;;;0.88;0.50;;;14.30;1.00;;;;;;5078258;28;20040;-66
2021/05/15 06:22:42;;;;;;;4.18;1.00;;;14.00;1.00;;;;;;5078374;28;20090;-66
2021/05/15 06:25:29;;;;;;;0.47;0.43;;;14.20;1.00;;;;;;5079469;28;20496;-66
2021/05/15 06:28:16;;;;;;;1.15;0.90;;;14.80;1.00;;;;;;5081385;28;20528;-66
2021/05/15 06:31:04;;;;;;;3.78;0.82;;;16.10;1.00;;;;;;5082448;28;20131;-66
2021/05/15 06:33:51;;;;;;;1.42;0.68;;;16.30;1.00;;;;;;5080497;28;20044;-65
2021/05/15 06:36:38;;;;;;;1.77;0.82;;;15.40;1.00;;;;;;5081204;28;20044;-65
2021/05/15 06:39:26;;;;;;;1.00;0.60;;;15.30;1.00;;;;;;5078803;28;20049;-65
2021/05/15 06:42:13;;;;;;;3.38;0.82;;;15.80;1.00;;;;;;5079923;28;20052;-66
2021/05/15 06:44:59;;;;;;;1.40;0.50;;;15.50;1.00;;;;;;5082471;28;20171;-66
2021/05/15 06:47:46;;;;;;;2.03;0.70;;;15.00;1.00;;;;;;5080893;28;20075;-66
2021/05/15 06:50:33;;;;;;;2.08;0.70;;;15.20;1.00;;;;;;5077811;28;20097;-66
2021/05/15 06:53:20;;;;;;;1.25;0.70;;;15.50;1.00;;;;;;5083455;28;20089;-66
2021/05/15 06:56:08;;;;;;;1.13;0.50;;;16.20;1.00;;;;;;5082562;28;20074;-65
2021/05/15 06:58:54;;;;;;;1.33;0.57;;;15.40;1.00;;;;;;5081028;28;20068;-66
2021/05/15 07:01:41;;;;;;;1.35;0.65;;;15.80;1.00;;;;;;5077705;28;20063;-66
2021/05/15 07:04:28;;;;;;;0.70;0.60;;;15.60;1.00;;;;;;5074611;28;20051;-66
2021/05/15 07:07:15;;;;;;;0.50;0.50;;;14.90;1.00;;;;;;5083272;28;20048;-66
2021/05/15 07:10:03;;;;;;;1.95;0.50;;;15.00;1.00;;;;;;5083690;28;20051;-66
2021/05/15 07:12:51;;;;;;;2.35;0.93;;;14.70;1.00;;;;;;5080444;28;20495;-66
2021/05/15 07:15:38;;;;;;;1.60;0.70;;;14.70;1.00;;;;;;5081615;28;20117;-66
2021/05/15 07:18:26;;;;;;;1.50;0.65;;;14.10;1.00;;;;;;5078067;28;20522;-66
2021/05/15 07:21:12;;;;;;;1.73;0.60;;;14.20;1.00;;;;;;5084497;28;20049;-65
2021/05/15 07:23:59;;;;;;;0.70;0.60;;;13.90;1.00;;;;;;5080277;28;20048;-65
2021/05/15 07:26:47;;;;;;;2.63;0.65;;;13.80;1.00;;;;;;5084120;28;20074;-66
2021/05/15 07:29:35;;;;;;;1.35;0.70;;;13.40;1.00;;;;;;5069959;28;20059;-65
2021/05/15 07:32:22;;;;;;;1.20;0.52;;;13.40;1.00;;;;;;5086214;28;20048;-65
2021/05/15 07:35:11;;;;;;;2.85;0.73;;;13.70;1.00;;;;;;5084393;28;20516;-65
2021/05/15 07:37:58;;;;;;;1.08;0.70;;;13.80;1.00;;;;;;5081393;28;20044;-65
2021/05/15 07:40:45;;;;;;;3.35;0.80;;;13.80;1.00;;;;;;5080700;28;20036;-65
2021/05/15 07:43:31;;;;;;;1.77;1.05;;;13.70;1.00;;;;;;5083145;28;20044;-66
2021/05/15 07:46:19;;;;;;;1.85;0.70;;;13.80;1.00;;;;;;5082291;28;20052;-65
2021/05/15 07:49:06;;;;;;;2.13;0.75;;;14.10;1.00;;;;;;5075621;28;20052;-65
2021/05/15 07:51:53;;;;;;;1.88;0.90;;;14.10;1.00;;;;;;5085635;28;20040;-65
2021/05/15 07:54:40;;;;;;;3.30;0.93;;;14.80;1.00;;;;;;5082440;28;20044;-65
2021/05/15 07:57:26;;;;;;;1.40;0.70;;;14.90;1.00;;;;;;5081587;28;20052;-65
2021/05/15 08:00:15;;;;;;;1.10;0.70;;;15.20;1.00;;;;;;5082576;28;20076;-66
2021/05/15 08:03:04;;;;;;;1.63;0.70;;;15.20;1.00;;;;;;5081830;28;20051;-66
2021/05/15 08:05:51;;;;;;;1.88;0.90;;;15.50;1.00;;;;;;5084229;28;20076;-65
2021/05/15 08:08:38;;;;;;;1.20;0.70;;;15.90;1.00;;;;;;5080810;28;20040;-66
2021/05/15 08:11:24;;;;;;;1.33;0.70;;;15.60;1.00;;;;;;5079404;28;20131;-65
2021/05/15 08:14:11;;;;;;;1.23;0.65;;;15.40;1.00;;;;;;5081649;28;20060;-67
2021/05/15 08:16:58;;;;;;;2.83;0.80;;;15.30;1.00;;;;;;5085003;28;20048;-64
2021/05/15 08:19:46;;;;;;;4.32;0.80;;;15.60;1.00;;;;;;5080725;28;20131;-66
2021/05/15 08:22:32;;;;;;;0.60;0.40;;;15.30;1.00;;;;;;5085737;28;20036;-65
2021/05/15 08:25:20;;;;;;;1.17;0.63;;;14.90;1.00;;;;;;5078315;28;20045;-66
2021/05/15 08:28:11;;;;;;;2.08;1.15;;;14.80;1.00;;;;;;5081947;28;20047;-65
2021/05/15 08:30:58;;;;;;;1.75;1.10;;;15.20;1.00;;;;;;5080625;28;20044;-65
2021/05/15 08:33:45;;;;;;;2.05;0.90;;;15.00;1.00;;;;;;5081148;28;20453;-66
2021/05/15 08:36:33;;;;;;;2.15;0.80;;;15.10;1.00;;;;;;5079455;28;20048;-65
2021/05/15 08:39:20;;;;;;;3.00;0.60;;;14.70;1.00;;;;;;5085575;28;20047;-65
2021/05/15 08:42:07;;;;;;;0.77;0.52;;;14.80;1.00;;;;;;5081931;28;20052;-66
2021/05/15 08:44:56;;;;;;;0.98;0.50;;;15.30;1.00;;;;;;5082105;28;20052;-66
2021/05/15 08:47:44;;;;;;;1.00;0.73;;;15.30;1.00;;;;;;5081276;28;20044;-66
2021/05/15 08:50:33;;;;;;;2.83;1.00;;;14.80;1.00;;;;;;5084707;28;20032;-65
2021/05/15 08:53:21;;;;;;;1.55;0.77;;;15.10;1.00;;;;;;5083364;28;20047;-65
2021/05/15 08:56:09;;;;;;;1.95;0.90;;;15.70;1.00;;;;;;5086354;28;20526;-65
2021/05/15 08:58:56;;;;;;;1.30;0.70;;;16.00;1.00;;;;;;5079035;28;20504;-66
2021/05/15 09:01:43;;;;;;;1.05;0.63;;;15.60;1.00;;;;;;5084239;28;20048;-65
2021/05/15 09:04:30;;;;;;;2.72;0.80;;;15.90;1.00;;;;;;5082474;28;20115;-65
2021/05/15 09:07:19;;;;;;;0.98;0.65;;;16.10;1.00;;;;;;5079881;28;20044;-66
2021/05/15 09:10:09;;;;;;;1.92;0.60;;;15.90;1.00;;;;;;5079211;28;20126;-65
2021/05/15 09:13:07;;;;;;;1.67;0.90;;;16.20;1.00;;;;;;5082924;28;20059;-65
2021/05/15 09:15:57;;;;;;;1.45;0.75;;;15.90;1.00;;;;;;5077796;28;20210;-66
2021/05/15 09:18:45;;;;;;;1.38;0.80;;;16.10;1.00;;;;;;5084282;28;20056;-66
2021/05/15 09:21:34;;;;;;;4.22;0.85;;;15.70;1.00;;;;;;5083793;28;20052;-65
2021/05/15 09:24:28;;;;;;;1.15;0.70;;;16.10;1.00;;;;;;5080517;28;20060;-65
2021/05/15 09:27:16;;;;;;;1.15;0.63;;;16.00;1.00;;;;;;5083774;28;20792;-64
2021/05/15 09:30:06;;;;;;;0.95;0.75;;;16.10;1.00;;;;;;5081680;28;20453;-65
2021/05/15 09:32:54;;;;;;;3.72;0.65;;;16.70;1.00;;;;;;5080235;28;20044;-64
2021/05/15 09:35:42;;;;;;;1.60;0.80;;;16.40;1.00;;;;;;5079442;28;20044;-64
2021/05/15 09:38:30;;;;;;;1.88;0.75;;;16.30;1.00;;;;;;5076631;28;20393;-65
2021/05/15 09:41:30;;;;;;;2.40;0.65;;;16.80;1.00;;;;;;5077925;28;20050;-65
2021/05/15 09:44:20;;;;;;;1.85;1.05;;;17.00;1.00;;;;;;5064670;28;20492;-65
2021/05/15 09:47:08;;;;;;;2.75;0.70;;;17.40;1.00;;;;;;5077130;28;20165;-64
2021/05/15 09:49:56;;;;;;;1.17;0.65;;;17.50;1.00;;;;;;5076179;28;20052;-64
2021/05/15 09:52:44;;;;;;;0.98;0.55;;;17.50;1.00;;;;;;5077059;28;20036;-64
2021/05/15 09:55:32;;;;;;;1.73;0.50;;;16.90;1.00;;;;;;5079706;28;20503;-65
2021/05/15 09:58:20;;;;;;;1.17;0.50;;;16.60;1.00;;;;;;5081452;28;20059;-66
2021/05/15 10:01:09;;;;;;;2.03;0.85;;;17.00;1.00;;;;;;5082086;28;20051;-65
2021/05/15 10:04:02;;;;;;;3.28;0.70;;;17.70;1.00;;;;;;5079506;28;20059;-65
2021/05/15 10:06:51;;;;;;;1.70;0.70;;;17.60;1.00;;;;;;5081283;28;20071;-65
2021/05/15 10:09:39;;;;;;;3.10;0.77;;;16.90;1.00;;;;;;5077775;28;20048;-65
2021/05/15 10:12:27;;;;;;;2.25;0.73;;;17.20;1.00;;;;;;5076387;28;20048;-66
2021/05/15 10:15:15;;;;;;;0.95;0.60;;;17.30;1.00;;;;;;5077837;28;20485;-65
2021/05/15 10:18:04;;;;;;;5.45;0.70;;;17.30;1.00;;;;;;5076444;28;20052;-65
2021/05/15 10:20:52;;;;;;;1.17;0.60;;;17.30;1.00;;;;;;5076325;28;20158;-64
2021/05/15 10:23:42;;;;;;;1.27;0.50;;;17.70;1.00;;;;;;5081038;28;20055;-65
2021/05/15 10:26:32;;;;;;;3.38;0.60;;;18.00;1.00;;;;;;5081230;28;20074;-65
2021/05/15 10:29:21;;;;;;;1.95;0.60;;;17.70;1.00;;;;;;5078897;28;20051;-65
2021/05/15 10:32:21;;;;;;;0.90;0.60;;;17.20;1.00;;;;;;5080622;28;20040;-64
2021/05/15 10:35:10;;;;;;;2.70;0.82;;;18.00;1.00;;;;;;5084653;28;20156;-63
2021/05/15 10:38:07;;;;;;;2.70;0.98;;;17.50;1.00;;;;;;5080069;28;20079;-65
2021/05/15 10:40:55;;;;;;;1.25;0.70;;;17.40;1.00;;;;;;5076361;28;20044;-64
2021/05/15 10:43:44;;;;;;;1.25;0.70;;;17.00;1.00;;;;;;5077524;28;20664;-63
2021/05/15 10:46:43;;;;;;;3.70;0.73;;;17.10;1.00;;;;;;5084585;28;20044;-64
2021/05/15 10:49:31;;;;;;;1.67;0.50;;;17.60;1.00;;;;;;5074876;28;20087;-65
2021/05/15 10:52:22;;;;;;;0.70;0.55;;;18.10;1.00;;;;;;5080592;28;20133;-65
2021/05/15 10:55:11;;;;;;;0.93;0.60;;;17.90;1.00;;;;;;5085482;28;20514;-65
2021/05/15 10:58:08;;;;;;;3.63;0.57;;;17.30;1.00;;;;;;5070898;28;20071;-64
2021/05/15 11:01:08;;;;;;;2.60;0.88;;;17.20;1.00;;;;;;5080893;28;20163;-64
2021/05/15 11:03:58;;;;;;;1.25;0.57;;;17.60;1.00;;;;;;5079127;28;20044;-64
2021/05/15 11:07:07;;;;;;;1.35;0.70;;;17.10;1.00;;;;;;5079491;28;20040;-65
2021/05/15 11:10:17;;;;;;;1.30;0.75;;;17.60;1.00;;;;;;5077448;28;20054;-66
2021/05/15 11:13:08;;;;;;;2.60;0.75;;;17.10;1.00;;;;;;5080094;28;20543;-65
2021/05/15 11:16:06;;;;;;;1.80;0.80;;;16.70;1.00;;;;;;5078934;28;20071;-65
2021/05/15 11:19:04;;;;;;;2.88;0.63;;;16.70;1.00;;;;;;5078724;28;20503;-65
2021/05/15 11:22:01;;;;;;;3.13;0.70;;;16.80;1.00;;;;;;5079304;28;20107;-65
2021/05/15 11:24:52;;;;;;;2.25;0.60;;;16.60;1.00;;;;;;5083878;28;20114;-65
2021/05/15 11:27:48;;;;;;;4.60;1.10;;;16.50;1.00;;;;;;5070775;28;20040;-64
2021/05/15 11:30:43;;;;;;;2.90;0.60;;;17.00;1.00;;;;;;5082652;28;20415;-64
2021/05/15 11:33:32;;;;;;;2.45;0.90;;;16.40;1.00;;;;;;5090302;28;20056;-65
2021/05/15 11:36:20;;;;;;;2.45;1.05;;;16.60;1.00;;;;;;5073846;28;20056;-65
2021/05/15 11:39:11;;;;;;;4.75;0.82;;;16.40;1.00;;;;;;5073932;28;20127;-65
2021/05/15 11:42:07;;;;;;;2.80;0.93;;;16.70;1.00;;;;;;5077736;28;20055;-65
2021/05/15 11:44:55;;;;;;;1.48;1.00;;;16.30;1.00;;;;;;5082147;28;20044;-65
2021/05/15 11:47:43;;;;;;;2.83;0.70;;;16.70;1.00;;;;;;5075345;28;20466;-65
2021/05/15 11:50:31;;;;;;;4.57;1.02;;;16.60;1.00;;;;;;5081917;28;20561;-66
2021/05/15 11:53:21;;;;;;;2.70;0.65;;;17.20;1.00;;;;;;5080833;28;20055;-65
2021/05/15 11:56:13;;;;;;;2.95;0.80;;;17.40;1.00;;;;;;5080112;28;20079;-65
2021/05/15 11:59:03;;;;;;;1.98;0.80;;;17.80;1.00;;;;;;5079042;28;20543;-65
2021/05/15 12:01:52;;;;;;;3.13;1.00;;;18.00;1.00;;;;;;5083817;28;21357;-65
2021/05/15 12:04:41;;;;;;;1.92;0.70;;;18.30;1.00;;;;;;5081975;28;20147;-65
2021/05/15 12:07:29;;;;;;;1.83;0.80;;;18.60;1.00;;;;;;5072449;28;20449;-66
2021/05/15 12:10:19;;;;;;;3.22;1.48;;;18.90;1.00;;;;;;5081849;28;20059;-66
2021/05/15 12:13:08;;;;;;;2.30;0.90;;;19.00;1.00;;;;;;5081986;28;20179;-65
2021/05/15 12:15:56;;;;;;;2.70;0.93;;;19.20;1.00;;;;;;5079618;28;20067;-64
2021/05/15 12:18:48;;;;;;;3.97;0.77;;;18.50;1.00;;;;;;5065267;28;20049;-66
2021/05/15 12:21:37;;;;;;;1.23;0.50;;;18.60;1.00;;;;;;5081243;28;20551;-65
2021/05/15 12:24:32;;;;;;;2.38;0.80;;;18.30;1.00;;;;;;5059465;28;20393;-65
2021/05/15 12:27:21;;;;;;;;;;;17.90;1.00;;;;;;5073864;28;20036;-64
2021/05/15 12:30:11;;;;;;;2.38;0.70;;;18.30;1.00;;;;;;5080910;28;20671;-65
2021/05/15 12:33:04;;;;;;;2.53;0.75;;;18.90;1.00;;;;;;5075927;28;20124;-65
2021/05/15 12:36:04;;;;;;;2.72;1.00;;;18.90;1.00;;;;;;5075680;28;20139;-65
2021/05/15 12:38:53;;;;;;;2.13;0.60;;;18.50;1.00;;;;;;5070553;28;20323;-65
2021/05/15 12:41:41;;;;;;;2.50;0.60;;;18.40;1.00;;;;;;5080116;28;20048;-65
2021/05/15 12:44:38;;;;;;;2.92;1.08;;;18.70;1.00;;;;;;5047062;28;20545;-66
2021/05/15 12:47:33;;;;;;;3.05;0.90;;;18.60;1.00;;;;;;5067168;28;20090;-65
2021/05/15 12:50:27;;;;;;;1.50;0.65;;;18.10;1.00;;;;;;5084088;28;20058;-65
2021/05/15 12:53:16;;;;;;;1.60;0.80;;;18.00;1.00;;;;;;5075542;28;20130;-65
2021/05/15 12:56:04;;;;;;;3.38;1.05;;;18.00;1.00;;;;;;5071955;28;20134;-65
2021/05/15 12:58:52;;;;;;;3.15;0.98;;;17.90;1.00;;;;;;5077146;28;20093;-65
2021/05/15 13:01:40;;;;;;;3.22;1.00;;;17.60;1.00;;;;;;5081189;28;20060;-65
2021/05/15 13:04:34;;;;;;;1.45;0.70;;;17.70;1.00;;;;;;5075061;28;20508;-66
2021/05/15 13:07:28;;;;;;;3.50;0.65;;;17.70;1.00;;;;;;5070681;28;20048;-65
2021/05/15 13:10:21;;;;;;;1.83;0.80;;;17.40;1.00;;;;;;5070552;28;20520;-64
2021/05/15 13:13:09;;;;;;;1.77;0.70;;;17.50;1.00;;;;;;5077270;28;20071;-65
2021/05/15 13:15:57;;;;;;;3.72;1.10;;;16.90;1.00;;;;;;5077649;28;20492;-64
2021/05/15 13:18:46;;;;;;;3.85;1.08;;;16.80;1.00;;;;;;5077987;28;20059;-65
2021/05/15 13:21:34;;;;;;;2.22;0.70;;;16.90;1.00;;;;;;5077428;28;20125;-66
2021/05/15 13:24:22;;;;;;;3.10;1.00;;;17.20;1.00;;;;;;5080778;28;20113;-65
2021/05/15 13:27:11;;;;;;;1.30;0.65;;;16.80;1.00;;;;;;5073431;28;20065;-65
2021/05/15 13:29:59;;;;;;;4.97;1.20;;;16.40;1.00;;;;;;5076742;28;20052;-65
2021/05/15 13:32:47;;;;;;;2.78;0.70;;;16.60;1.00;;;;;;5078905;28;20503;-65
2021/05/15 13:35:36;;;;;;;4.18;1.23;;;16.60;1.00;;;;;;5076455;28;20507;-65
2021/05/15 13:38:24;;;;;;;3.25;0.80;;;16.30;1.00;;;;;;5066080;28;20048;-64
2021/05/15 13:41:12;;;;;;;1.88;0.70;;;16.30;1.00;;;;;;5060478;28;20581;-65
2021/05/15 13:44:01;;;;;;;3.58;1.70;;;16.20;1.00;;;;;;5076423;28;20400;-65
2021/05/15 13:46:51;;;;;;;2.78;0.70;;;16.20;1.00;;;;;;5073818;28;20056;-66
2021/05/15 13:49:39;;;;;;;3.15;1.08;;;16.30;1.00;;;;;;5077394;28;20056;-66
2021/05/15 13:52:30;;;;;;;2.53;0.98;;;16.40;1.00;;;;;;5081432;28;20198;-66
2021/05/15 13:55:21;;;;;;;1.40;0.80;;;16.40;1.00;;;;;;5077823;28;20453;-65
2021/05/15 13:58:09;;;;;;;2.40;1.08;;;16.30;1.00;;;;;;5073553;28;20141;-65
2021/05/15 14:00:59;;;;;;;3.10;0.90;;;16.40;1.00;;;;;;5076148;28;20052;-65
2021/05/15 14:03:50;;;;;;;1.70;0.70;;;16.10;1.00;;;;;;5075878;28;20635;-64
2021/05/15 14:06:38;;;;;;;3.55;0.70;;;16.20;1.00;;;;;;5069791;28;20060;-64
2021/05/15 14:09:26;;;;;;;1.40;1.00;;;16.20;1.00;;;;;;5075542;28;20045;-65
2021/05/15 14:12:14;;;;;;;2.60;0.77;;;16.30;1.00;;;;;;5073219;28;20162;-64
2021/05/15 14:15:02;;;;;;;3.65;0.98;;;16.40;1.00;;;;;;5077913;28;20052;-65
2021/05/15 14:17:51;;;;;;;6.18;1.50;;;16.60;1.00;;;;;;5071507;28;20071;-65
2021/05/15 14:20:40;;;;;;;3.03;1.30;;;16.70;1.00;;;;;;5074119;28;20137;-64
2021/05/15 14:23:31;;;;;;;4.32;1.50;;;16.30;1.00;;;;;;5077848;28;20058;-65
2021/05/15 14:26:20;;;;;;;3.15;1.50;;;16.50;1.00;;;;;;5073759;28;20052;-63
2021/05/15 14:29:08;;;;;;;2.10;1.35;;;17.20;1.00;;;;;;5074634;28;20049;-64
2021/05/15 14:31:56;;;;;;;6.60;2.08;;;17.50;1.00;;;;;;5074493;28;20048;-64
2021/05/15 14:34:45;;;;;;;2.50;1.08;;;17.60;1.00;;;;;;5077828;28;20040;-64
2021/05/15 14:37:33;;;;;;;1.98;0.80;;;17.30;1.00;;;;;;5063841;28;20161;-65
2021/05/15 14:40:25;;;;;;;1.70;1.00;;;16.90;1.00;;;;;;5074704;28;20512;-65
2021/05/15 14:43:15;;;;;;;2.88;0.82;;;16.80;1.00;;;;;;5078389;28;20048;-63
2021/05/15 14:46:03;;;;;;;2.90;0.80;;;17.00;1.00;;;;;;5072304;28;20605;-65
2021/05/15 14:48:51;;;;;;;2.45;0.90;;;17.30;1.00;;;;;;5073062;28;20048;-65